Time;durP1;ratioP1;P1;durP2;ratioP2;P2;SDS_P1;SDS_P2;PMS_P1;PMS_P2;Temp;Humidity;BMP_temperature;BMP_pressure;BME280_temperature;BME280_humidity;BME280_pressure;Samples;Min_cycle;Max_cycle;Signal;HPM_P1;HPM_P2
2023/06/05 00:03:01;;;;;;;4.72;2.20;;;16.50;91.80;;;15.42;76.47;100467.84;10078521;28;96701;-88
2023/06/05 00:08:05;;;;;;;3.45;2.22;;;16.50;92.10;;;15.38;76.69;100463.88;10076297;28;96607;-88
2023/06/05 00:13:08;;;;;;;4.18;2.38;;;16.50;92.40;;;15.41;76.94;100462.66;10074747;28;96460;-88
2023/06/05 00:18:11;;;;;;;6.65;2.40;;;16.40;92.70;;;15.46;76.48;100461.06;10087608;28;96631;-88
2023/06/05 00:23:15;;;;;;;3.33;2.10;;;16.50;92.70;;;15.51;76.03;100455.94;10098987;28;96724;-88
2023/06/05 00:28:17;;;;;;;4.15;2.20;;;16.60;92.80;;;15.60;75.27;100462.00;10086539;28;98823;-89
2023/06/05 00:33:21;;;;;;;3.33;2.08;;;16.70;92.70;;;15.65;75.96;100464.97;10094240;28;96578;-89
2023/06/05 00:38:24;;;;;;;4.32;2.58;;;16.80;92.80;;;15.66;76.04;100450.56;10111361;28;96819;-88
2023/06/05 00:43:27;;;;;;;4.32;2.65;;;16.80;92.90;;;15.63;76.09;100455.47;10076488;28;97627;-87
2023/06/05 00:48:32;;;;;;;4.40;2.40;;;16.70;93.10;;;15.60;76.63;100456.66;10092973;28;97824;-87
2023/06/05 00:53:38;;;;;;;3.40;2.40;;;16.70;93.30;;;15.54;76.84;100452.06;10092922;28;96702;-87
2023/06/05 00:58:41;;;;;;;2.97;2.20;;;16.60;93.60;;;15.53;76.95;100458.44;10098684;28;96792;-87
2023/06/05 01:03:44;;;;;;;3.22;2.33;;;16.60;93.80;;;15.45;77.70;100455.91;10079108;28;96807;-86
2023/06/05 01:08:48;;;;;;;4.13;2.00;;;16.50;94.20;;;15.37;78.12;100453.38;10099585;28;97909;-87
2023/06/05 01:14:23;;;;;;;3.88;2.50;;;16.50;94.40;;;15.34;78.39;100457.25;10083524;28;96696;-88
2023/06/05 01:19:31;;;;;;;4.07;2.50;;;16.40;94.70;;;15.33;79.31;100446.72;10112295;28;96735;-87
2023/06/05 01:24:35;;;;;;;3.42;2.30;;;16.40;94.90;;;15.30;78.89;100444.47;10090457;28;96754;-87
2023/06/05 01:29:53;;;;;;;5.10;2.38;;;16.40;95.10;;;15.30;78.96;100449.81;10092956;28;97350;-87
2023/06/05 01:34:58;;;;;;;3.83;2.20;;;16.40;95.30;;;15.23;78.83;100439.88;10060085;28;96875;-87
2023/06/05 01:40:06;;;;;;;4.10;2.85;;;16.30;95.50;;;15.25;79.13;100445.03;10079020;28;96763;-87
2023/06/05 01:45:11;;;;;;;4.68;2.42;;;16.30;95.70;;;15.20;78.99;100452.78;10063752;28;97458;-87
2023/06/05 01:50:15;;;;;;;4.05;2.35;;;16.30;95.90;;;15.21;79.09;100446.41;10046196;28;96696;-87
2023/06/05 01:55:23;;;;;;;6.60;2.70;;;16.30;96.00;;;15.19;79.33;100445.78;10075904;28;98506;-88
2023/06/05 02:00:27;;;;;;;3.90;2.30;;;16.30;96.20;;;15.17;79.42;100440.63;10075285;28;97765;-87
2023/06/05 02:05:31;;;;;;;3.22;2.40;;;16.30;96.30;;;15.14;79.17;100449.03;10077315;28;96975;-87
2023/06/05 02:10:35;;;;;;;3.45;2.55;;;16.30;96.60;;;15.13;79.36;100443.88;10078222;28;96812;-87
2023/06/05 02:15:38;;;;;;;4.68;2.20;;;16.20;96.60;;;15.13;79.24;100441.22;10099037;28;98253;-87
2023/06/05 02:20:41;;;;;;;4.68;2.13;;;16.20;96.70;;;15.14;79.05;100441.00;10090592;28;96477;-87
2023/06/05 02:25:45;;;;;;;5.75;2.50;;;16.30;96.80;;;15.18;79.18;100436.13;10079021;28;96536;-87
2023/06/05 02:30:48;;;;;;;3.70;2.33;;;16.30;96.90;;;15.19;79.34;100443.13;10083550;28;98441;-88
2023/06/05 02:35:51;;;;;;;4.90;2.17;;;16.30;97.00;;;15.20;79.09;100439.41;10114473;28;96623;-88
2023/06/05 02:40:55;;;;;;;4.05;2.25;;;16.30;97.10;;;15.22;79.42;100432.00;10069184;28;96660;-88
2023/06/05 02:45:58;;;;;;;3.30;2.33;;;16.30;97.10;;;15.24;79.23;100430.81;10088243;28;98099;-87
2023/06/05 02:51:01;;;;;;;4.68;2.25;;;16.40;97.20;;;15.27;79.15;100435.78;10092052;28;96522;-88
2023/06/05 02:56:05;;;;;;;4.25;2.08;;;16.40;97.20;;;15.29;79.40;100432.88;10107448;28;96832;-88
2023/06/05 03:01:08;;;;;;;4.00;2.40;;;16.30;97.30;;;15.29;79.53;100432.88;10067871;28;98576;-87
2023/06/05 03:06:11;;;;;;;2.85;2.33;;;16.30;97.50;;;15.33;79.51;100438.69;10081300;28;99265;-88
2023/06/05 03:11:15;;;;;;;3.80;2.30;;;16.40;97.60;;;15.33;79.16;100431.50;10089765;28;98859;-88
2023/06/05 03:16:18;;;;;;;5.25;2.78;;;16.40;97.60;;;15.35;79.30;100437.47;10096180;28;97938;-88
2023/06/05 03:21:21;;;;;;;4.30;2.50;;;16.40;97.70;;;15.36;79.53;100439.16;10084866;28;98853;-88
2023/06/05 03:26:25;;;;;;;3.88;2.45;;;16.40;97.80;;;15.42;79.79;100438.38;10078203;28;96677;-87
2023/06/05 03:31:28;;;;;;;3.30;2.40;;;16.50;97.90;;;15.45;79.60;100427.25;10081584;28;97969;-88
2023/06/05 03:36:33;;;;;;;4.35;2.47;;;16.50;97.90;;;15.46;79.58;100433.44;10081876;28;98214;-89
2023/06/05 03:41:36;;;;;;;4.30;2.22;;;16.50;98.00;;;15.52;79.71;100430.00;10098293;28;96697;-89
2023/06/05 03:46:40;;;;;;;5.00;2.90;;;16.60;97.90;;;15.58;79.08;100431.91;10084796;28;97362;-88
2023/06/05 03:51:45;;;;;;;3.88;2.30;;;16.70;97.90;;;15.66;79.47;100447.03;10111890;28;96615;-88
2023/06/05 03:56:49;;;;;;;4.22;2.33;;;16.70;97.90;;;15.72;78.62;100451.63;10092136;28;96770;-88
2023/06/05 04:01:53;;;;;;;5.22;2.30;;;16.80;97.80;;;15.76;78.35;100445.66;10087709;28;98400;-89
2023/06/05 04:06:57;;;;;;;4.15;2.65;;;16.90;97.80;;;15.82;78.52;100457.44;10094744;28;96797;-86
2023/06/05 04:12:00;;;;;;;4.00;2.53;;;16.90;97.80;;;15.89;78.62;100460.16;10129279;28;96523;-85
2023/06/05 04:17:04;;;;;;;3.55;2.15;;;17.00;97.80;;;15.95;78.51;100451.34;10128502;28;96587;-90
2023/06/05 04:22:08;;;;;;;4.03;2.60;;;17.00;97.80;;;16.02;78.48;100452.22;10095756;28;97944;-90
2023/06/05 04:27:10;;;;;;;3.40;2.30;;;17.10;97.90;;;16.15;78.74;100451.47;10109229;28;96711;-89
2023/06/05 04:32:16;;;;;;;4.93;2.65;;;17.20;97.90;;;16.26;78.41;100442.88;10105191;28;96699;-90
2023/06/05 04:37:20;;;;;;;3.67;2.55;;;17.40;97.80;;;16.39;78.45;100436.75;10110929;28;98794;-90
2023/06/05 04:42:23;;;;;;;4.05;2.72;;;17.50;97.80;;;16.51;78.67;100453.91;10081033;28;96901;-90
2023/06/05 04:47:27;;;;;;;5.43;2.15;;;17.60;97.70;;;16.62;78.09;100456.03;10108005;28;96649;-90
2023/06/05 04:52:32;;;;;;;4.15;2.60;;;17.80;97.60;;;16.76;77.34;100454.25;10098841;28;96571;-90
2023/06/05 04:57:35;;;;;;;6.05;2.38;;;17.90;97.30;;;16.86;75.43;100457.38;10072886;28;96725;-90
2023/06/05 05:02:38;;;;;;;4.57;2.33;;;18.00;96.90;;;16.94;74.53;100448.31;10087659;28;96838;-90
2023/06/05 05:07:42;;;;;;;3.80;2.40;;;18.00;96.70;;;17.10;74.67;100458.66;10078122;28;98842;-89
2023/06/05 05:12:46;;;;;;;3.17;2.45;;;18.10;96.70;;;17.29;73.78;100455.16;10109902;28;97163;-90
2023/06/05 05:17:49;;;;;;;3.42;2.58;;;18.40;96.20;;;17.49;72.72;100459.72;10075449;28;96659;-90
2023/06/05 05:22:52;;;;;;;4.30;2.70;;;18.60;95.80;;;17.68;72.21;100453.50;10104778;28;97793;-91
2023/06/05 05:27:55;;;;;;;6.00;2.67;;;18.70;95.80;;;17.92;72.32;100457.44;10095037;28;96681;-90
2023/06/05 05:32:58;;;;;;;7.60;2.92;;;19.00;95.50;;;18.19;71.40;100452.84;10091369;28;96747;-89
2023/06/05 05:38:01;;;;;;;3.75;2.30;;;19.30;95.30;;;18.46;69.92;100450.88;10101079;28;97156;-88
2023/06/05 05:43:04;;;;;;;4.45;2.35;;;19.60;94.80;;;18.70;68.09;100460.94;10111669;28;97060;-89
2023/06/05 05:48:08;;;;;;;5.18;2.60;;;19.80;93.80;;;18.82;65.69;100462.94;10083256;28;98526;-89
2023/06/05 05:53:11;;;;;;;7.40;2.63;;;19.90;93.00;;;18.97;66.38;100456.25;10111955;28;96873;-90
2023/06/05 05:58:15;;;;;;;6.95;2.50;;;20.10;92.90;;;19.09;66.81;100458.25;10088694;28;96954;-90
2023/06/05 06:03:19;;;;;;;5.43;2.92;;;20.20;92.80;;;19.11;64.46;100456.16;10097580;28;97416;-90
2023/06/05 06:08:22;;;;;;;6.13;3.42;;;20.30;92.10;;;19.12;64.14;100460.50;10112112;28;96713;-88
2023/06/05 06:13:26;;;;;;;5.45;2.75;;;20.30;91.80;;;19.09;62.09;100455.53;10080915;28;96656;-86
2023/06/05 06:18:30;;;;;;;4.43;2.70;;;20.30;90.90;;;19.07;61.18;100454.91;10085737;28;96693;-86
2023/06/05 06:23:33;;;;;;;3.70;2.50;;;20.20;90.30;;;19.11;61.42;100453.44;10115092;28;97489;-87
2023/06/05 06:28:37;;;;;;;7.63;3.05;;;20.30;90.40;;;19.17;60.73;100456.09;10113093;28;96822;-89
2023/06/05 06:33:40;;;;;;;3.17;2.50;;;20.30;89.80;;;19.25;60.24;100447.78;10104624;28;97142;-91
2023/06/05 06:38:43;;;;;;;4.72;2.75;;;20.40;89.50;;;19.32;59.57;100453.09;10098035;28;96782;-86
2023/06/05 06:43:46;;;;;;;5.13;2.55;;;20.50;88.60;;;19.29;58.94;100453.53;10107734;28;96786;-90
2023/06/05 06:48:50;;;;;;;2.97;2.25;;;20.50;87.60;;;19.28;59.05;100445.66;10077657;28;96664;-90
2023/06/05 06:53:53;;;;;;;6.13;3.33;;;20.50;86.90;;;19.29;59.66;100441.94;10086052;28;97544;-90
2023/06/05 06:58:56;;;;;;;4.05;2.60;;;20.40;87.00;;;19.34;60.16;100434.03;10100902;28;96627;-92
2023/06/05 07:03:59;;;;;;;4.57;2.75;;;20.50;87.30;;;19.43;60.62;100444.31;10096160;28;96842;-89
2023/06/05 07:09:03;;;;;;;4.93;2.97;;;20.60;87.60;;;19.41;60.75;100438.31;10072014;28;98506;-87
2023/06/05 07:14:07;;;;;;;4.55;2.83;;;20.60;87.50;;;19.38;60.22;100451.41;10111049;28;98210;-87
2023/06/05 07:19:10;;;;;;;7.22;2.75;;;20.60;87.30;;;19.45;61.73;100428.75;10099631;28;98485;-88
2023/06/05 07:24:14;;;;;;;6.93;3.75;;;20.60;88.00;;;19.52;61.21;100437.59;10062212;28;96738;-88
2023/06/05 07:29:18;;;;;;;6.45;3.33;;;20.70;87.90;;;19.61;61.39;100445.41;10072354;28;98832;-88
2023/06/05 07:34:23;;;;;;;7.20;2.60;;;20.70;87.90;;;19.62;61.95;100447.09;10099043;28;98597;-89
2023/06/05 07:39:27;;;;;;;4.72;2.85;;;20.80;88.00;;;19.73;61.92;100454.44;10119400;28;96991;-91
2023/06/05 07:44:30;;;;;;;12.02;3.30;;;20.90;88.00;;;19.83;60.73;100456.63;10130352;28;97669;-91
2023/06/05 07:49:33;;;;;;;5.63;2.60;;;21.00;87.40;;;19.94;60.99;100456.72;10086627;28;98907;-92
2023/06/05 07:54:36;;;;;;;5.45;3.10;;;21.10;87.40;;;19.93;60.16;100447.00;10079650;28;99107;-90
2023/06/05 07:59:41;;;;;;;6.43;2.70;;;21.20;86.90;;;19.97;60.67;100445.50;10090618;28;96789;-86
2023/06/05 08:04:44;;;;;;;7.63;3.30;;;21.20;86.80;;;20.00;60.21;100447.75;10088460;28;98404;-87
2023/06/05 08:09:47;;;;;;;6.05;3.40;;;21.20;86.50;;;20.12;60.25;100447.81;10085741;28;99110;-88
2023/06/05 08:14:51;;;;;;;6.80;2.90;;;21.30;86.60;;;20.19;60.31;100443.16;10109062;28;98714;-88
2023/06/05 08:19:54;;;;;;;8.88;3.70;;;21.30;86.40;;;20.18;60.33;100438.00;10078958;28;97268;-88
2023/06/05 08:24:59;;;;;;;5.28;3.10;;;21.40;86.60;;;20.21;60.10;100442.94;10088682;28;97340;-93
2023/06/05 08:30:03;;;;;;;8.80;3.47;;;21.40;86.40;;;20.25;60.74;100452.25;10105235;28;98413;-89
2023/06/05 08:35:07;;;;;;;7.15;3.47;;;21.40;86.50;;;20.25;60.06;100446.84;10095689;28;97362;-90
2023/06/05 08:40:12;;;;;;;6.70;4.22;;;21.40;86.20;;;20.19;60.07;100448.56;10073583;28;96981;-93
2023/06/05 08:45:15;;;;;;;5.28;3.03;;;21.40;86.60;;;20.19;60.13;100453.16;10066344;28;98558;-93
2023/06/05 08:50:18;;;;;;;6.63;3.58;;;21.40;86.00;;;20.18;60.59;100455.03;10096413;28;97567;-91
2023/06/05 08:55:22;;;;;;;11.73;3.53;;;21.40;86.10;;;20.23;60.14;100454.34;10052538;28;96985;-91
2023/06/05 09:00:25;;;;;;;4.63;3.17;;;21.40;86.20;;;20.35;60.69;100451.72;10077028;28;96653;-91
2023/06/05 09:05:28;;;;;;;5.10;2.70;;;21.50;86.40;;;20.45;61.00;100455.59;10095675;28;97807;-90
2023/06/05 09:10:32;;;;;;;7.60;3.42;;;21.60;86.40;;;20.54;60.06;100440.72;10091098;28;98617;-95
2023/06/05 09:15:36;;;;;;;5.78;2.80;;;21.70;86.10;;;20.67;60.34;100444.28;10102321;28;98598;-94
2023/06/05 09:20:42;;;;;;;7.45;2.80;;;21.80;86.30;;;20.74;60.08;100439.63;10112628;28;96840;-89
2023/06/05 09:25:50;;;;;;;7.93;3.38;;;22.00;86.10;;;20.84;59.62;100434.50;10098116;28;98120;-91
2023/06/05 09:30:56;;;;;;;5.00;2.90;;;22.00;85.80;;;20.97;59.70;100433.47;10114087;28;97482;-94
2023/06/05 09:36:08;;;;;;;5.03;2.70;;;22.20;85.70;;;21.14;59.96;100430.94;10100140;28;96914;-92
2023/06/05 09:41:20;;;;;;;7.20;2.90;;;22.30;85.40;;;21.25;58.55;100422.03;10079045;28;98305;-88
2023/06/05 09:46:23;;;;;;;6.28;3.28;;;22.50;84.80;;;21.30;58.81;100427.59;10105176;28;98605;-89
2023/06/05 09:51:26;;;;;;;6.65;2.60;;;22.50;84.90;;;21.49;57.26;100434.56;10115062;28;96641;-88
2023/06/05 09:56:30;;;;;;;6.85;2.85;;;22.70;83.80;;;21.56;56.70;100432.56;10084465;28;97922;-88
2023/06/05 10:01:40;;;;;;;7.32;2.95;;;22.80;83.20;;;21.51;55.13;100431.63;10087914;28;96615;-87
2023/06/05 10:06:44;;;;;;;5.78;3.13;;;22.70;81.20;;;21.59;55.54;100431.25;10100581;28;99057;-87
2023/06/05 10:11:50;;;;;;;7.22;3.15;;;22.80;81.40;;;21.76;55.49;100415.97;10082970;28;96633;-88
2023/06/05 10:16:56;;;;;;;8.02;3.25;;;23.00;81.20;;;21.93;55.28;100418.78;10109722;28;98586;-89
2023/06/05 10:21:59;;;;;;;6.25;2.90;;;23.10;81.00;;;21.99;53.17;100407.00;10113022;28;96696;-88
2023/06/05 10:27:11;;;;;;;5.75;3.03;;;23.20;79.10;;;22.13;53.85;100399.47;10062506;28;98852;-89
2023/06/05 10:32:46;;;;;;;6.18;3.00;;;23.30;79.40;;;22.28;51.08;100388.16;10093858;28;97266;-89
2023/06/05 10:38:17;;;;;;;9.38;2.55;;;23.50;77.40;;;22.50;52.09;100382.91;10073203;28;98519;-88
2023/06/05 10:43:30;;;;;;;5.75;3.22;;;23.70;77.30;;;22.85;52.06;100372.72;10099773;28;96755;-88
2023/06/05 10:49:07;;;;;;;4.22;2.47;;;24.00;77.30;;;23.12;48.21;100370.22;10102458;28;97726;-87
2023/06/05 10:54:16;;;;;;;8.13;2.60;;;24.30;75.30;;;23.30;49.10;100361.00;10111447;28;96554;-87
2023/06/05 10:59:21;;;;;;;5.60;3.00;;;24.50;74.60;;;23.48;47.71;100357.22;10080767;28;97173;-89
2023/06/05 11:04:26;;;;;;;3.50;2.38;;;24.70;73.00;;;23.64;46.62;100348.25;10099353;28;96785;-91
2023/06/05 11:09:29;;;;;;;5.88;2.80;;;24.80;71.60;;;23.72;46.28;100339.69;10050990;28;96794;-89
2023/06/05 11:14:48;;;;;;;3.83;2.45;;;24.90;70.40;;;24.02;44.88;100343.84;10081066;28;96656;-89
2023/06/05 11:19:52;;;;;;;5.72;2.50;;;25.20;70.20;;;24.08;43.79;100333.88;10111512;28;96774;-92
2023/06/05 11:25:17;;;;;;;12.15;3.03;;;25.40;67.70;;;24.30;42.41;100338.22;10099507;28;97159;-86
2023/06/05 11:30:28;;;;;;;6.32;2.60;;;25.50;66.40;;;24.43;42.50;100330.78;10105488;28;96992;-89
2023/06/05 11:35:49;;;;;;;4.55;3.15;;;25.60;65.80;;;24.64;44.16;100332.59;10089669;28;97044;-88
2023/06/05 11:40:53;;;;;;;6.72;2.67;;;25.80;66.80;;;24.75;43.63;100326.19;10073380;28;96716;-88
2023/06/05 11:45:58;;;;;;;4.47;2.20;;;26.00;66.20;;;24.96;40.37;100323.66;10095252;28;96824;-85
2023/06/05 11:51:05;;;;;;;2.60;2.20;;;26.10;63.50;;;25.09;37.57;100317.78;10075874;28;96741;-87
2023/06/05 11:56:16;;;;;;;3.60;2.28;;;26.30;61.30;;;25.15;38.81;100315.94;10099341;28;96582;-87
2023/06/05 12:01:31;;;;;;;6.88;2.10;;;26.30;60.80;;;25.26;38.32;100312.22;10091524;28;96651;-88
2023/06/05 12:06:43;;;;;;;5.57;2.40;;;26.40;60.20;;;25.32;38.67;100309.25;10097511;28;97356;-84
2023/06/05 12:11:46;;;;;;;5.03;2.10;;;26.50;59.60;;;25.25;38.45;100299.66;10082735;28;96724;-87
2023/06/05 12:16:50;;;;;;;4.40;2.05;;;26.40;59.70;;;25.38;38.79;100303.84;10094137;28;96656;-87
2023/06/05 12:22:06;;;;;;;4.78;2.40;;;26.50;60.00;;;25.45;37.42;100299.00;10101655;28;98246;-86
2023/06/05 12:27:09;;;;;;;4.45;2.10;;;26.50;58.50;;;25.52;36.93;100294.94;10099224;28;96606;-86
2023/06/05 12:32:23;;;;;;;4.38;2.25;;;26.60;58.00;;;25.59;35.78;100284.63;10096739;28;96572;-86
2023/06/05 12:37:34;;;;;;;3.70;2.25;;;26.80;56.90;;;25.51;36.06;100274.25;10096504;28;96507;-85
2023/06/05 12:42:40;;;;;;;3.85;2.00;;;26.80;56.60;;;25.67;35.19;100268.88;10111836;28;97496;-88
2023/06/05 12:47:44;;;;;;;3.47;1.80;;;26.90;56.00;;;25.85;36.08;100273.91;10079606;28;96751;-87
2023/06/05 12:52:47;;;;;;;5.85;1.90;;;27.10;56.10;;;25.92;34.91;100266.28;10101373;28;96610;-85
2023/06/05 12:57:50;;;;;;;4.85;2.20;;;27.20;55.30;;;25.85;34.62;100252.94;10101570;28;96666;-85
2023/06/05 13:02:53;;;;;;;6.93;2.38;;;27.10;54.80;;;25.78;35.37;100243.38;10083296;28;98362;-85
2023/06/05 13:07:56;;;;;;;4.97;2.30;;;26.90;55.00;;;25.53;34.55;100246.78;10094638;28;96655;-85
2023/06/05 13:12:59;;;;;;;8.85;1.92;;;26.80;54.40;;;25.46;34.93;100246.22;10082732;28;98163;-84
2023/06/05 13:18:03;;;;;;;4.45;2.78;;;26.60;54.40;;;25.42;35.46;100237.75;10085239;28;96610;-83
2023/06/05 13:23:07;;;;;;;6.63;2.53;;;26.60;54.60;;;25.55;36.28;100237.28;10094778;28;96798;-84
2023/06/05 13:28:10;;;;;;;4.20;2.10;;;26.60;55.20;;;25.65;35.55;100222.88;10078857;28;96851;-84
2023/06/05 13:33:13;;;;;;;8.13;2.17;;;26.80;55.00;;;25.68;35.39;100233.25;10070024;28;96708;-85
2023/06/05 13:38:16;;;;;;;4.53;1.85;;;26.80;55.10;;;25.68;35.15;100227.00;10097638;28;96606;-84
2023/06/05 13:43:20;;;;;;;5.43;2.10;;;26.70;54.80;;;25.64;35.27;100221.25;10057278;28;96540;-84
2023/06/05 13:48:22;;;;;;;2.72;1.85;;;26.70;54.70;;;25.58;35.49;100227.75;10092020;28;97661;-85
2023/06/05 13:53:26;;;;;;;7.47;2.08;;;26.70;54.50;;;25.56;34.63;100213.63;10104559;28;96656;-84
2023/06/05 13:58:31;;;;;;;9.82;2.50;;;26.60;54.20;;;25.48;34.82;100212.19;10069137;28;96691;-84
2023/06/05 14:03:35;;;;;;;3.03;1.88;;;26.50;54.10;;;25.48;35.13;100205.94;10091056;28;96583;-84
2023/06/05 14:08:38;;;;;;;6.15;2.00;;;26.50;54.00;;;25.55;34.46;100207.34;10092639;28;96786;-84
2023/06/05 14:13:41;;;;;;;7.25;2.20;;;26.60;53.80;;;25.54;34.79;100202.16;10094310;28;96893;-85
2023/06/05 14:18:44;;;;;;;4.50;2.00;;;26.60;53.90;;;25.56;33.75;100197.28;10097564;28;96993;-85
2023/06/05 14:23:47;;;;;;;4.78;2.42;;;26.60;53.00;;;25.50;33.67;100191.00;10065017;28;97406;-86
2023/06/05 14:28:51;;;;;;;4.47;1.90;;;26.50;53.00;;;25.48;34.00;100189.63;10082681;28;98795;-85
2023/06/05 14:33:54;;;;;;;3.75;1.90;;;26.50;52.90;;;25.40;32.97;100190.16;10098163;28;96721;-85
2023/06/05 14:38:57;;;;;;;3.63;2.20;;;26.40;52.30;;;25.28;33.50;100187.66;10098724;28;96621;-85
2023/06/05 14:44:00;;;;;;;3.58;2.00;;;26.30;52.30;;;25.21;33.98;100185.16;10097756;28;97174;-84
2023/06/05 14:49:18;;;;;;;5.07;2.38;;;26.30;52.70;;;25.15;34.29;100188.94;10075531;28;96721;-85
2023/06/05 14:54:21;;;;;;;2.95;1.90;;;26.20;53.20;;;25.08;34.77;100185.66;10095856;28;96708;-84
2023/06/05 14:59:24;;;;;;;7.68;1.90;;;26.10;53.40;;;24.99;35.13;100182.56;10115061;28;96449;-85
2023/06/05 15:04:30;;;;;;;5.15;2.25;;;26.00;53.60;;;25.00;36.14;100186.91;10105346;28;96647;-86
2023/06/05 15:09:34;;;;;;;6.97;1.88;;;26.00;54.60;;;24.99;35.30;100181.75;10097545;28;96778;-84
2023/06/05 15:14:37;;;;;;;2.70;2.10;;;26.00;54.10;;;24.96;35.98;100176.88;10098579;28;97417;-90
2023/06/05 15:19:40;;;;;;;7.95;2.22;;;26.00;54.50;;;24.98;35.83;100171.97;10112385;28;97198;-86
2023/06/05 15:24:46;;;;;;;5.97;2.00;;;26.00;54.50;;;24.96;35.99;100168.72;10071234;28;96598;-87
2023/06/05 15:29:49;;;;;;;3.33;2.10;;;26.00;54.60;;;24.92;35.41;100162.16;10086988;28;96584;-91
2023/06/05 15:34:52;;;;;;;5.38;2.13;;;25.90;54.20;;;24.90;35.81;100158.88;10097537;28;96608;-89
2023/06/05 15:39:55;;;;;;;5.80;2.20;;;25.90;54.00;;;24.89;35.45;100155.34;10073001;28;97906;-93
2023/06/05 15:45:15;;;;;;;4.82;2.15;;;25.90;54.10;;;24.88;35.51;100150.97;10086245;28;97207;-94
2023/06/05 15:50:18;;;;;;;5.30;2.08;;;25.90;54.10;;;24.83;35.90;100157.22;10084512;28;96663;-92
2023/06/05 15:55:21;;;;;;;5.57;2.17;;;25.90;54.10;;;24.79;36.27;100158.00;10104514;28;97667;-93
2023/06/05 16:00:25;;;;;;;4.65;2.20;;;25.80;54.30;;;24.72;36.64;100144.66;10111467;28;97381;-89
2023/06/05 16:05:30;;;;;;;4.05;2.45;;;25.80;54.50;;;24.65;36.31;100146.78;10090740;28;97141;-92
2023/06/05 16:10:33;;;;;;;6.65;2.40;;;25.70;54.40;;;24.55;36.62;100150.25;10083640;28;96801;-88
2023/06/05 16:15:40;;;;;;;6.20;2.45;;;25.60;54.60;;;24.50;36.96;100142.06;10069612;28;96740;-89
2023/06/05 16:20:43;;;;;;;8.02;2.60;;;25.50;54.80;;;24.47;37.12;100141.75;10075787;28;97154;-90
2023/06/05 16:25:46;;;;;;;5.20;2.33;;;25.50;55.50;;;24.41;36.71;100134.63;10104441;28;96603;-90
2023/06/05 16:30:49;;;;;;;4.50;1.90;;;25.40;55.00;;;24.35;37.05;100143.81;10091028;28;97445;-91
2023/06/05 16:35:52;;;;;;;3.80;2.22;;;25.40;55.20;;;24.27;37.21;100135.06;10072898;28;96679;-91
2023/06/05 16:40:55;;;;;;;5.32;2.20;;;25.30;55.20;;;24.21;38.74;100132.56;10082759;28;96479;-90
2023/06/05 16:45:58;;;;;;;4.97;1.83;;;25.20;55.40;;;24.15;38.01;100130.88;10078120;28;96957;-90
2023/06/05 16:51:02;;;;;;;22.48;3.00;;;25.20;55.70;;;24.11;38.17;100122.47;10076467;28;96662;-90
2023/06/05 16:56:05;;;;;;;3.35;2.35;;;25.10;55.90;;;24.06;38.21;100116.97;10077255;28;97062;-91
2023/06/05 17:01:08;;;;;;;7.68;2.15;;;25.10;55.90;;;23.98;38.72;100112.00;10089752;28;96765;-90
2023/06/05 17:06:12;;;;;;;5.15;2.47;;;25.10;56.10;;;23.95;38.74;100120.69;10080941;28;96549;-90
2023/06/05 17:11:17;;;;;;;3.13;1.88;;;25.00;56.20;;;23.87;40.05;100121.97;10080768;28;96602;-90
2023/06/05 17:16:20;;;;;;;5.38;2.00;;;25.00;57.40;;;23.79;40.48;100125.13;10070287;28;98349;-90
2023/06/05 17:21:23;;;;;;;4.68;2.05;;;24.90;57.80;;;23.73;41.35;100109.88;10100161;28;97764;-89
2023/06/05 17:26:29;;;;;;;5.95;2.35;;;24.80;58.40;;;23.65;42.07;100115.78;10104286;28;97760;-88
2023/06/05 17:31:33;;;;;;;4.50;2.35;;;24.70;59.10;;;23.54;42.61;100112.09;10088986;28;97810;-89
2023/06/05 17:36:37;;;;;;;3.28;2.30;;;24.50;59.90;;;23.40;43.56;100116.31;10076639;28;96983;-89
2023/06/05 17:41:40;;;;;;;6.97;2.17;;;24.40;61.00;;;23.28;43.97;100108.31;10059566;28;96537;-89
2023/06/05 17:46:43;;;;;;;5.60;2.50;;;24.20;61.40;;;23.17;44.99;100110.06;10101611;28;96701;-89
2023/06/05 17:51:47;;;;;;;5.75;2.40;;;24.10;62.40;;;23.07;45.37;100106.41;10093234;28;96971;-89
2023/06/05 17:56:53;;;;;;;8.15;2.45;;;24.00;62.80;;;22.94;46.28;100104.91;10104166;28;97286;-88
2023/06/05 18:01:58;;;;;;;3.97;2.55;;;23.90;63.30;;;22.80;46.52;100106.31;10110136;28;97342;-88
2023/06/05 18:07:06;;;;;;;8.05;2.83;;;23.80;63.80;;;22.63;46.39;100106.34;10083059;28;96832;-88
2023/06/05 18:12:09;;;;;;;8.82;2.20;;;23.70;63.90;;;22.54;46.94;100111.34;10120822;28;96501;-88
2023/06/05 18:17:13;;;;;;;5.53;1.98;;;23.50;64.20;;;22.37;46.91;100111.41;10097205;28;96675;-88
2023/06/05 18:22:16;;;;;;;3.72;2.40;;;23.40;64.20;;;22.24;46.72;100113.59;10118126;28;98858;-89
2023/06/05 18:27:19;;;;;;;7.32;2.20;;;23.30;64.30;;;22.09;47.19;100111.47;10100000;28;97616;-88
2023/06/05 18:32:22;;;;;;;5.65;2.40;;;23.20;64.70;;;22.00;47.49;100119.13;10078042;28;97515;-88
2023/06/05 18:37:25;;;;;;;3.33;2.10;;;23.00;65.40;;;21.87;47.92;100120.28;10079439;28;96888;-88
2023/06/05 18:42:28;;;;;;;6.03;2.10;;;22.90;65.40;;;21.72;49.06;100119.19;10091548;28;99511;-88
2023/06/05 18:47:32;;;;;;;6.07;2.00;;;22.80;66.10;;;21.51;48.54;100126.91;10115513;28;96652;-88
2023/06/05 18:52:36;;;;;;;5.75;2.10;;;22.50;66.40;;;21.38;49.42;100119.09;10083875;28;96699;-87
2023/06/05 18:57:40;;;;;;;4.10;2.10;;;22.40;66.90;;;21.29;49.46;100134.03;10108427;28;96851;-86
2023/06/05 19:02:43;;;;;;;5.47;2.40;;;22.30;67.10;;;21.18;50.11;100132.19;10094120;28;97490;-86
2023/06/05 19:07:46;;;;;;;5.00;2.45;;;22.20;67.30;;;21.11;50.55;100145.81;10083447;28;96579;-87
2023/06/05 19:12:49;;;;;;;7.00;2.47;;;22.10;67.80;;;21.04;50.94;100145.13;10081637;28;96745;-86
2023/06/05 19:17:52;;;;;;;4.20;2.30;;;22.10;68.20;;;20.94;51.32;100144.91;10078685;28;96797;-87
2023/06/05 19:22:55;;;;;;;4.95;2.60;;;21.90;68.70;;;20.87;52.40;100141.50;10093563;28;96707;-87
2023/06/05 19:27:59;;;;;;;3.05;2.20;;;21.80;69.50;;;20.79;52.83;100140.00;10090328;28;97219;-86
2023/06/05 19:33:03;;;;;;;4.53;2.55;;;21.80;70.30;;;20.72;53.47;100131.19;10090780;28;96685;-88
2023/06/05 19:38:06;;;;;;;4.80;2.47;;;21.70;70.70;;;20.68;53.00;100135.41;10080576;28;98837;-89
2023/06/05 19:43:09;;;;;;;5.22;2.55;;;21.60;70.50;;;20.61;52.49;100134.72;10100179;28;96689;-89
2023/06/05 19:48:12;;;;;;;3.55;2.03;;;21.60;70.10;;;20.55;52.54;100139.19;10081540;28;98825;-89
2023/06/05 19:53:15;;;;;;;3.88;2.58;;;21.60;70.10;;;20.47;52.60;100134.13;10080551;28;97483;-88
2023/06/05 19:58:19;;;;;;;2.65;2.10;;;21.50;70.30;;;20.37;54.20;100140.06;10095977;28;96730;-88
2023/06/05 20:03:22;;;;;;;11.75;2.47;;;21.40;71.20;;;20.28;54.33;100146.88;10065290;28;96678;-88
2023/06/05 20:08:25;;;;;;;6.47;2.47;;;21.30;71.80;;;20.20;53.74;100147.22;10070420;28;96722;-87
2023/06/05 20:13:28;;;;;;;4.55;2.47;;;21.30;71.80;;;20.12;55.63;100148.38;10128073;28;97479;-87
2023/06/05 20:18:32;;;;;;;5.78;2.70;;;21.20;72.70;;;20.09;56.39;100145.31;10093866;28;97047;-87
2023/06/05 20:23:36;;;;;;;7.70;2.83;;;21.10;73.30;;;20.04;57.46;100146.84;10080410;28;97002;-87
2023/06/05 20:28:40;;;;;;;4.45;2.75;;;21.00;73.90;;;19.99;57.78;100146.72;10104912;28;96643;-87
2023/06/05 20:33:43;;;;;;;4.68;2.90;;;21.00;74.50;;;19.91;58.03;100135.41;10086991;28;97661;-87
2023/06/05 20:38:46;;;;;;;4.18;2.42;;;20.90;75.40;;;19.88;58.14;100142.09;10095520;28;96850;-87
2023/06/05 20:43:49;;;;;;;5.32;2.53;;;20.90;75.60;;;19.84;58.11;100140.09;10074436;28;96619;-86
2023/06/05 20:48:53;;;;;;;3.67;2.47;;;20.80;75.70;;;19.83;58.65;100143.84;10109703;28;97952;-87
2023/06/05 20:53:56;;;;;;;4.03;2.20;;;20.90;76.10;;;19.81;58.84;100145.94;10092600;28;97570;-87